Middleton Island, Alaska
Current Conditions -  °F | °C
As of 2:56 AM on Thursday 23 Oct 2014 (Local Time) from PAMD Reporting Station
Overcast Overcast  
Wind Chill: 39°   Ceiling: 1300
Heat Index: 45°   Visibility: 8mi
Dew Point: 43°   Wind: 10mph
Humidity: 93%   Direction: 270°W
Pressure: 29.44"   Gusts: NA
Location:  59.43°N, 146.33°W
Report Text: PAMD 231056Z 27009KT 8SM BKN013 OVC020 07/06 A2944 RMK AO1
Loading
Personal Weather Stations






























Interactive Weather Map
Tropical Storm Tracking
New forecast layout! Learn more

10-Day Weather Forecast

Advertisements
Track Severe Weather on mobile